Lincoln, MA

6:53 AM EDT on April 28, 2015 (GMT -0400)
Lincoln Center, Lincoln MA | | Change Station
CLOSE
Current Station
Personal Weather Station
Location: Lincoln, MA
Elevation: 230 ft
Nearby Weather Stations

Elev 230 ft 42.42 °N, 71.31 °W | Updated 25 seconds ago

Overcast
Overcast
42.9 °F
Feels Like 43 °F
N
1.0
Wind Variable Wind from NE
Gusts 1.0 mph

Today
High -- | Low -- °F
--% Chance of Precip.
Yesterday
High -- | Low -- °F
Precip. -- in
5:44 AM 7:41 PM
Waxing Gibbous, 73% visible
Pressure 29.75 in
Visibility 10.0 miles
Clouds Overcast 6000 ft
Windchill 43 °F
Dew Point 38 °F
Humidity 84%
Rainfall 0.17 in
Snow Depth Not available.
UV 0 out of 12
Pollen 8.00 out of 12
Air Quality Not available.
Flu Activity Widespread
METAR KBED 280956Z AUTO 35009KT 10SM OVC060 06/03 A2971 RMK AO2 SLP074 T00560033 TSNO

More Conditions Fewer Conditions

Pressure 29.75 in
Visibility 10.0 miles
Clouds Overcast 6000 ft
Windchill 43 °F
Dew Point 38 °F
Humidity 84%
Rainfall 0.17 in
Snow Depth Not available.
UV 0 out of 12
Pollen 8.00 out of 12
Air Quality Not available.
Flu Activity Widespread
METAR KBED 280956Z AUTO 35009KT 10SM OVC060 06/03 A2971 RMK AO2 SLP074 T00560033 TSNO

More Conditions Fewer Conditions

10-Day Weather Forecast

Almanac

Astronomy

Apr. 28, 2015 Rise Set
Actual Time
Civil Twilight
Nautical Twilight
Astronomical Twilight
Moon
Length of Visible Light
Length of Day
Tomorrow will be .
, % of the Moon is Illuminated

Today's Extremes

State Highs State Lows

Community

WunderPhotos

Upload Photos

1,817,603 photos uploaded!

WunderBlogs® & News

Nearby

Air Quality

  Air Quality AQ Index Pollutant
Not available.

Snow Depth

Station Depth Elevation

Earthquake Activity

City Distance Mag. Time & Date
Minimum magnitude displayed is 2.5.

Coastal Water Temperatures

Place Temperature

Stations

Nearby Weather Stations

Station Location Temp. Windchill Dew Point Humidity Wind Precip. Elev Updated Type